Time;durP1;ratioP1;P1;durP2;ratioP2;P2;SDS_P1;SDS_P2;PMS_P1;PMS_P2;Temp;Humidity;BMP_temperature;BMP_pressure;BME280_temperature;BME280_humidity;BME280_pressure;Samples;Min_cycle;Max_cycle;Signal;HPM_P1;HPM_P2
2024/02/29 00:02:17;;;;;;;3.53;2.78;;;;;;;10.77;84.36;99236.69;5040420;28;20057;-47
2024/02/29 00:04:43;;;;;;;3.67;3.08;;;;;;;10.77;84.05;99230.66;5038426;28;20049;-52
2024/02/29 00:07:10;;;;;;;6.68;2.83;;;;;;;10.79;84.11;99240.13;5044558;28;20049;-49
2024/02/29 00:09:37;;;;;;;4.75;3.15;;;;;;;10.79;84.11;99227.19;5046168;28;20053;-51
2024/02/29 00:12:04;;;;;;;3.60;2.45;;;;;;;10.82;84.73;99225.41;5045744;28;20498;-51
2024/02/29 00:14:32;;;;;;;4.78;3.20;;;;;;;10.82;84.07;99213.31;5044116;28;20049;-48
2024/02/29 00:17:00;;;;;;;3.53;2.60;;;;;;;10.79;84.88;99209.03;5039667;28;20516;-49
2024/02/29 00:19:27;;;;;;;4.57;2.83;;;;;;;10.83;83.97;99206.38;5039509;28;20047;-52
2024/02/29 00:21:54;;;;;;;4.28;2.60;;;;;;;10.83;84.63;99202.06;5045128;28;20052;-48
2024/02/29 00:24:21;;;;;;;6.22;3.42;;;;;;;10.84;84.71;99196.00;5034152;28;20099;-50
2024/02/29 00:26:48;;;;;;;2.72;2.45;;;;;;;10.80;83.78;99182.25;5045947;28;20053;-44
2024/02/29 00:29:15;;;;;;;3.60;2.28;;;;;;;10.85;84.56;99183.91;5046117;28;20044;-51
2024/02/29 00:31:43;;;;;;;3.10;2.53;;;;;;;10.87;84.01;99189.91;5021406;28;20057;-49
2024/02/29 00:34:12;;;;;;;4.30;3.10;;;;;;;10.83;83.43;99180.47;5056151;28;20044;-50
2024/02/29 00:36:40;;;;;;;3.50;2.42;;;;;;;10.84;83.27;99177.03;5045103;28;20056;-48
2024/02/29 00:39:07;;;;;;;4.05;2.65;;;;;;;10.89;84.06;99185.56;5044692;28;20049;-45
2024/02/29 00:41:42;;;;;;;3.38;2.42;;;;;;;10.89;83.54;99185.56;5036982;28;20494;-47
2024/02/29 00:44:09;;;;;;;5.53;2.70;;;;;;;10.87;83.46;99183.00;5042776;28;20041;-52
2024/02/29 00:46:37;;;;;;;3.42;3.05;;;;;;;10.86;83.88;99181.28;5026206;28;20494;-44
2024/02/29 00:49:04;;;;;;;2.88;2.33;;;;;;;10.89;82.66;99175.19;5039857;28;20052;-51
2024/02/29 00:51:31;;;;;;;2.95;2.45;;;;;;;10.90;83.40;99169.13;5045299;28;20053;-45
2024/02/29 00:53:58;;;;;;;2.78;2.28;;;;;;;10.84;83.50;99180.44;5024705;28;20072;-54
2024/02/29 00:56:25;;;;;;;2.88;2.40;;;;;;;10.86;83.84;99180.44;5034257;28;20063;-47
2024/02/29 00:58:51;;;;;;;3.25;2.10;;;;;;;10.85;83.04;99179.59;5039580;28;20060;-51
2024/02/29 01:01:18;;;;;;;3.33;2.38;;;;;;;10.84;83.39;99169.25;5023993;28;20107;-44
2024/02/29 01:03:47;;;;;;;3.22;2.33;;;;;;;10.85;82.38;99168.38;5037461;28;20080;-48
2024/02/29 01:06:15;;;;;;;2.67;2.47;;;;;;;10.79;82.63;99165.00;5036999;28;20053;-49
2024/02/29 01:08:43;;;;;;;4.80;2.22;;;;;;;10.85;82.68;99170.94;5041529;28;20612;-47
2024/02/29 01:11:11;;;;;;;4.13;2.78;;;;;;;10.82;82.95;99173.59;5035341;28;20044;-48
2024/02/29 01:13:38;;;;;;;4.15;2.92;;;;;;;10.84;82.31;99161.47;5038669;28;20056;-51
2024/02/29 01:16:06;;;;;;;5.60;2.63;;;;;;;10.83;82.38;99158.03;5037092;28;20053;-44
2024/02/29 01:18:35;;;;;;;6.60;5.43;;;;;;;10.83;83.11;99155.44;5038449;28;20152;-52
2024/02/29 01:21:06;;;;;;;4.57;3.53;;;;;;;10.83;82.93;99160.63;5038415;28;20056;-47
2024/02/29 01:23:36;;;;;;;2.45;1.83;;;;;;;10.79;83.05;99159.84;5046317;28;20060;-46
2024/02/29 01:26:04;;;;;;;2.03;1.75;;;;;;;10.77;83.36;99156.41;5038369;28;20045;-48
2024/02/29 01:28:31;;;;;;;4.65;2.75;;;;;;;10.79;82.85;99149.47;5041242;28;20045;-50
2024/02/29 01:31:00;;;;;;;1.45;1.27;;;;;;;10.76;82.55;99159.88;5045415;28;20382;-50
2024/02/29 01:33:27;;;;;;;3.25;2.42;;;;;;;10.77;83.36;99153.81;5046509;28;20053;-47
2024/02/29 01:35:55;;;;;;;2.92;2.50;;;;;;;10.76;82.16;99154.69;5042490;28;20049;-47
2024/02/29 01:38:24;;;;;;;3.17;2.03;;;;;;;10.78;83.33;99152.09;5041792;28;20053;-51
2024/02/29 01:40:52;;;;;;;3.80;2.50;;;;;;;10.74;82.57;99160.78;5046301;28;20514;-50
2024/02/29 01:43:20;;;;;;;2.92;2.20;;;;;;;10.75;82.56;99153.00;5046206;28;20571;-49
2024/02/29 01:46:00;;;;;;;2.22;1.25;;;;;;;10.74;83.09;99146.09;5053711;28;20154;-50
2024/02/29 01:48:27;;;;;;;2.58;1.92;;;;;;;10.72;83.07;99147.88;5048689;28;20053;-52
2024/02/29 01:50:55;;;;;;;1.73;1.63;;;;;;;10.66;83.62;99137.59;5047597;28;20048;-46
2024/02/29 01:53:22;;;;;;;2.25;1.77;;;;;;;10.70;83.29;99143.59;5048414;28;20509;-46
2024/02/29 01:55:49;;;;;;;4.88;1.65;;;;;;;10.67;83.59;99144.47;5047874;28;20136;-46
2024/02/29 01:58:15;;;;;;;1.85;1.75;;;;;;;10.64;83.15;99129.03;5041653;28;20052;-49
2024/02/29 02:00:43;;;;;;;2.92;1.90;;;;;;;10.64;83.64;99132.44;5044139;28;20055;-49
2024/02/29 02:03:10;;;;;;;2.30;1.85;;;;;;;10.66;83.65;99127.25;5046593;28;20048;-51
2024/02/29 02:05:37;;;;;;;2.47;2.28;;;;;;;10.63;83.42;99124.72;5044583;28;20057;-45
2024/02/29 02:08:04;;;;;;;3.40;1.85;;;;;;;10.64;83.33;99124.69;5042027;28;20477;-52
2024/02/29 02:10:33;;;;;;;2.35;2.15;;;;;;;10.64;84.01;99110.91;5050225;28;20054;-52
2024/02/29 02:13:00;;;;;;;3.03;2.25;;;;;;;10.68;83.63;99120.31;5044047;28;20047;-50
2024/02/29 02:15:26;;;;;;;2.63;1.98;;;;;;;10.66;83.00;99111.72;5037084;28;20049;-52
2024/02/29 02:17:56;;;;;;;3.83;2.55;;;;;;;10.66;82.57;99114.31;5045649;28;20509;-47
2024/02/29 02:20:24;;;;;;;3.75;2.60;;;;;;;10.65;83.72;99110.00;5044510;28;20088;-52
2024/02/29 02:22:51;;;;;;;7.03;2.15;;;;;;;10.66;83.07;99101.34;5042640;28;20532;-47
2024/02/29 02:25:17;;;;;;;4.80;2.67;;;;;;;10.61;84.10;99109.19;5044404;28;20045;-45
2024/02/29 02:27:44;;;;;;;7.20;3.38;;;;;;;10.66;83.55;99091.00;5050858;28;20048;-50
2024/02/29 02:30:11;;;;;;;4.18;3.03;;;;;;;10.63;83.58;99091.03;5051705;28;20049;-53
2024/02/29 02:32:39;;;;;;;3.67;1.70;;;;;;;10.63;83.99;99089.31;5050416;28;20047;-47
2024/02/29 02:35:06;;;;;;;3.35;2.45;;;;;;;10.66;83.80;99080.63;5054631;28;20156;-46
2024/02/29 02:37:34;;;;;;;2.83;2.30;;;;;;;10.66;83.74;99075.47;5041892;28;20098;-49
2024/02/29 02:40:04;;;;;;;2.90;2.05;;;;;;;10.64;83.01;99087.59;5029853;28;20049;-46
2024/02/29 02:42:31;;;;;;;;;;;;;;;10.51;83.62;99084.38;5045720;28;20409;-49
2024/02/29 02:44:58;;;;;;;3.47;2.88;;;;;;;10.60;83.58;99085.94;5041640;28;20388;-51
2024/02/29 02:47:25;;;;;;;3.03;2.72;;;;;;;10.60;83.53;99075.59;5033471;28;20052;-54
2024/02/29 02:49:51;;;;;;;2.95;2.28;;;;;;;10.52;84.04;99079.16;5031885;28;20060;-50
2024/02/29 02:52:19;;;;;;;3.00;2.08;;;;;;;10.57;83.21;99067.88;5040997;28;20142;-46
2024/02/29 02:54:45;;;;;;;2.55;1.77;;;;;;;10.55;84.25;99062.72;5045309;28;20052;-48
2024/02/29 02:57:12;;;;;;;4.57;2.40;;;;;;;10.59;83.13;99063.50;5046217;28;20480;-51
2024/02/29 02:59:39;;;;;;;3.40;2.35;;;;;;;10.56;83.81;99055.78;5045234;28;20072;-47
2024/02/29 03:02:09;;;;;;;3.97;2.85;;;;;;;10.58;83.94;99061.81;5043963;28;20504;-47
2024/02/29 03:04:36;;;;;;;2.22;1.95;;;;;;;10.54;84.01;99061.84;5043014;28;20147;-47
2024/02/29 03:07:03;;;;;;;3.42;1.83;;;;;;;10.52;83.99;99053.28;5056728;28;20048;-53
2024/02/29 03:09:30;;;;;;;3.53;1.80;;;;;;;10.51;83.79;99056.72;5047079;28;20785;-46
2024/02/29 03:11:57;;;;;;;3.05;2.53;;;;;;;10.53;82.84;99048.94;5046736;28;20045;-44
2024/02/29 03:14:24;;;;;;;3.38;3.08;;;;;;;10.50;83.65;99052.44;5042952;28;20048;-48
2024/02/29 03:16:50;;;;;;;1.10;1.10;;;;;;;10.46;83.64;99048.19;5047439;28;20460;-53
2024/02/29 03:19:17;;;;;;;2.55;0.68;;;;;;;10.43;83.78;99037.88;5049073;28;20428;-47
2024/02/29 03:21:44;;;;;;;1.88;1.70;;;;;;;10.47;83.76;99039.53;5044305;28;20132;-49
2024/02/29 03:24:11;;;;;;;2.00;1.73;;;;;;;10.47;83.36;99036.13;5048488;28;20135;-49
2024/02/29 03:26:38;;;;;;;1.55;1.25;;;;;;;10.47;84.02;99042.13;5037985;28;20516;-44
2024/02/29 03:29:04;;;;;;;3.25;1.90;;;;;;;10.41;83.71;99039.66;5040164;28;20049;-54
2024/02/29 03:31:32;;;;;;;2.42;1.50;;;;;;;10.40;84.47;99033.59;5040256;28;20053;-44
2024/02/29 03:34:01;;;;;;;2.08;1.67;;;;;;;10.42;83.95;99041.34;5048007;28;20041;-48
2024/02/29 03:36:28;;;;;;;1.73;1.63;;;;;;;10.37;83.90;99032.81;5046185;28;20076;-47
2024/02/29 03:38:55;;;;;;;2.90;1.95;;;;;;;10.38;84.43;99034.50;5046787;28;20064;-51
2024/02/29 03:41:23;;;;;;;6.13;2.55;;;;;;;10.40;83.75;99024.97;5047620;28;20060;-45
2024/02/29 03:43:50;;;;;;;1.92;1.77;;;;;;;10.40;83.94;99033.59;5040614;28;20052;-46
2024/02/29 03:46:16;;;;;;;1.80;1.70;;;;;;;10.42;84.29;99025.81;5044837;28;20049;-50
2024/02/29 03:48:44;;;;;;;2.53;1.48;;;;;;;10.40;84.26;99022.38;5038901;28;20073;-48
2024/02/29 03:51:11;;;;;;;1.33;1.23;;;;;;;10.40;84.41;99017.19;5045714;28;20055;-54
2024/02/29 03:53:37;;;;;;;1.95;1.85;;;;;;;10.40;83.83;99017.19;5043914;28;20049;-50
2024/02/29 03:56:06;;;;;;;2.97;1.85;;;;;;;10.36;83.79;99020.72;5045257;28;20063;-46
2024/02/29 03:58:33;;;;;;;2.00;1.80;;;;;;;10.36;83.71;99011.25;5038488;28;20074;-47
2024/02/29 04:00:59;;;;;;;2.38;2.25;;;;;;;10.38;83.93;99008.63;5040138;28;20049;-45
2024/02/29 04:03:26;;;;;;;2.88;1.92;;;;;;;10.37;84.73;99012.13;5038449;28;20060;-48
2024/02/29 04:05:53;;;;;;;1.50;1.40;;;;;;;10.35;83.84;99006.09;5046138;28;20091;-52
2024/02/29 04:08:19;;;;;;;1.90;1.55;;;;;;;10.37;83.51;99009.53;5045121;28;20072;-46
2024/02/29 04:10:48;;;;;;;1.65;1.55;;;;;;;10.35;84.07;99009.53;5041106;28;20052;-49
2024/02/29 04:13:17;;;;;;;1.50;1.40;;;;;;;10.35;83.67;99013.84;5043966;28;20139;-47
2024/02/29 04:15:44;;;;;;;1.52;1.40;;;;;;;10.37;84.46;99006.94;5039348;28;20042;-50
2024/02/29 04:18:15;;;;;;;1.83;1.13;;;;;;;10.37;84.52;99006.94;5037952;28;20049;-48
2024/02/29 04:20:41;;;;;;;3.40;1.55;;;;;;;10.38;84.42;99006.03;5042688;28;20049;-50
2024/02/29 04:23:08;;;;;;;3.40;3.20;;;;;;;10.39;83.67;99015.50;5042348;28;20044;-49
2024/02/29 04:25:34;;;;;;;1.85;1.73;;;;;;;10.37;84.50;99018.13;5043067;28;20049;-46
2024/02/29 04:28:02;;;;;;;3.33;1.73;;;;;;;10.37;84.61;99012.13;5044068;28;20051;-51
2024/02/29 04:30:29;;;;;;;1.80;1.70;;;;;;;10.38;84.24;99012.09;5048158;28;20052;-48
2024/02/29 04:32:56;;;;;;;1.48;1.30;;;;;;;10.39;83.96;99015.50;5040643;28;20059;-49
2024/02/29 04:35:23;;;;;;;2.33;2.20;;;;;;;10.37;83.81;99010.34;5046120;28;20156;-47
2024/02/29 04:37:49;;;;;;;1.83;1.73;;;;;;;10.38;84.38;99013.81;5041275;28;20505;-46
2024/02/29 04:40:16;;;;;;;1.98;1.88;;;;;;;10.37;84.35;99012.13;5047117;28;20102;-50
2024/02/29 04:42:42;;;;;;;1.55;1.45;;;;;;;10.38;83.85;99008.63;5050461;28;20060;-51
2024/02/29 04:45:11;;;;;;;1.40;1.30;;;;;;;10.38;83.81;99004.31;5033674;28;20041;-54
2024/02/29 04:47:37;;;;;;;1.95;1.85;;;;;;;10.38;83.57;99008.63;5046831;28;20061;-49
2024/02/29 04:50:04;;;;;;;0.55;0.47;;;;;;;10.38;83.81;98998.28;5041750;28;20659;-48
2024/02/29 04:52:31;;;;;;;3.83;1.58;;;;;;;10.36;84.48;99000.88;5034571;28;20099;-49
2024/02/29 04:54:58;;;;;;;1.33;1.23;;;;;;;10.37;84.18;98991.41;5039691;28;20057;-47
2024/02/29 04:57:25;;;;;;;1.90;1.23;;;;;;;10.33;83.94;98997.53;5040850;28;20049;-50
2024/02/29 04:59:52;;;;;;;2.38;1.88;;;;;;;10.34;84.32;98999.22;5038371;28;20131;-45
2024/02/29 05:02:19;;;;;;;2.97;1.83;;;;;;;10.35;83.73;98991.44;5047801;28;20056;-47
2024/02/29 05:04:45;;;;;;;1.48;1.38;;;;;;;10.35;83.89;98987.97;5040153;28;20501;-47
2024/02/29 05:07:12;;;;;;;3.47;2.08;;;;;;;10.34;84.07;98991.44;5048349;28;20049;-49
2024/02/29 05:09:39;;;;;;;1.83;1.65;;;;;;;10.35;84.32;98994.03;5047773;28;20060;-49
2024/02/29 05:12:07;;;;;;;2.08;1.10;;;;;;;10.36;84.01;98989.66;5048472;28;20405;-45
2024/02/29 05:14:34;;;;;;;2.42;2.17;;;;;;;10.35;83.80;98987.97;5050323;28;20056;-45
2024/02/29 05:17:01;;;;;;;5.53;2.08;;;;;;;10.33;84.07;98979.41;5048848;28;20049;-42
2024/02/29 05:19:27;;;;;;;2.08;1.52;;;;;;;10.33;83.90;98975.06;5049519;28;20071;-48
2024/02/29 05:21:55;;;;;;;2.05;1.95;;;;;;;10.35;84.35;98975.03;5049148;28;20049;-45
2024/02/29 05:24:22;;;;;;;2.97;2.08;;;;;;;10.34;84.51;98975.94;5047346;28;20562;-49
2024/02/29 05:26:49;;;;;;;2.45;2.28;;;;;;;10.31;84.15;98981.16;5049340;28;20501;-51
2024/02/29 05:29:16;;;;;;;2.15;1.75;;;;;;;10.29;84.59;98984.63;5048925;28;20056;-47
2024/02/29 05:31:50;;;;;;;3.33;1.85;;;;;;;10.31;83.88;98981.16;5049845;28;20049;-47
2024/02/29 05:34:16;;;;;;;2.42;2.30;;;;;;;10.31;83.62;98981.16;5051270;28;20052;-46
2024/02/29 05:36:43;;;;;;;2.45;2.05;;;;;;;10.31;84.39;98983.75;5048659;28;20143;-48
2024/02/29 05:39:12;;;;;;;1.55;1.45;;;;;;;10.28;84.32;98972.59;5044684;28;20139;-50
2024/02/29 05:41:39;;;;;;;1.55;1.45;;;;;;;10.29;83.48;98979.47;5038951;28;20057;-44
2024/02/29 05:44:05;;;;;;;2.97;1.92;;;;;;;10.26;83.93;98979.50;5047114;28;20049;-52
2024/02/29 05:46:32;;;;;;;2.05;1.95;;;;;;;10.27;84.38;98981.22;5055694;28;20049;-45
2024/02/29 05:49:00;;;;;;;2.25;2.03;;;;;;;10.26;84.34;98978.63;5050159;28;20063;-49
2024/02/29 05:51:28;;;;;;;2.78;2.58;;;;;;;10.25;84.37;98977.81;5034168;28;20049;-53
2024/02/29 05:53:55;;;;;;;1.67;1.58;;;;;;;10.26;84.44;98976.91;5043855;28;20075;-51
2024/02/29 05:56:22;;;;;;;1.55;1.45;;;;;;;10.25;84.20;98982.97;5050404;28;20052;-51
2024/02/29 05:58:50;;;;;;;1.42;1.17;;;;;;;10.27;84.46;98980.38;5044543;28;20049;-48
2024/02/29 06:01:17;;;;;;;1.80;1.70;;;;;;;10.25;83.83;98982.97;5053408;28;20060;-48
2024/02/29 06:03:45;;;;;;;2.58;2.25;;;;;;;10.25;84.42;98975.22;5048913;28;20055;-49
2024/02/29 06:06:15;;;;;;;1.33;1.23;;;;;;;10.25;83.59;98977.81;5043442;28;20128;-48
2024/02/29 06:08:42;;;;;;;1.63;1.52;;;;;;;10.22;83.76;98975.28;5030357;28;20136;-46
2024/02/29 06:11:13;;;;;;;2.97;2.45;;;;;;;10.24;84.05;98976.09;5042195;28;20061;-50
2024/02/29 06:13:40;;;;;;;1.50;1.40;;;;;;;10.25;83.55;98972.63;5029122;28;20092;-51
2024/02/29 06:16:07;;;;;;;1.48;1.38;;;;;;;10.25;83.64;98977.81;5042014;28;20059;-50
2024/02/29 06:18:36;;;;;;;1.98;1.88;;;;;;;10.24;84.33;98980.41;5047877;28;20075;-44
2024/02/29 06:21:03;;;;;;;2.75;2.55;;;;;;;10.27;83.53;98975.19;5045991;28;20044;-51
2024/02/29 06:23:31;;;;;;;2.00;1.90;;;;;;;10.27;83.86;98973.44;5045808;28;20076;-47
2024/02/29 06:25:57;;;;;;;2.40;1.77;;;;;;;10.28;83.54;98972.59;5044120;28;20091;-49
2024/02/29 06:28:24;;;;;;;2.60;2.40;;;;;;;10.30;83.86;98980.28;5043237;28;20506;-51
2024/02/29 06:30:52;;;;;;;2.55;2.35;;;;;;;10.31;83.80;98975.97;5044286;28;20106;-50
2024/02/29 06:33:19;;;;;;;0.80;0.65;;;;;;;10.29;84.37;98969.09;5043868;28;20460;-52
2024/02/29 06:35:46;;;;;;;1.88;1.77;;;;;;;10.18;83.71;98960.69;5048341;28;20045;-46
2024/02/29 06:38:12;;;;;;;2.88;2.13;;;;;;;10.06;83.27;98961.75;5047331;28;20044;-47
2024/02/29 06:40:41;;;;;;;1.60;1.17;;;;;;;10.02;82.68;98960.97;5046950;28;20064;-51
2024/02/29 06:43:08;;;;;;;3.63;1.63;;;;;;;9.96;83.40;98963.66;5042529;28;20460;-47
2024/02/29 06:45:35;;;;;;;1.60;1.50;;;;;;;9.89;83.35;98954.28;5048110;28;20041;-45
2024/02/29 06:48:02;;;;;;;3.08;0.75;;;;;;;9.85;82.96;98957.81;5045458;28;20529;-46
2024/02/29 06:50:28;;;;;;;2.50;1.52;;;;;;;9.81;82.47;98966.50;5043786;28;20053;-46
2024/02/29 06:52:56;;;;;;;3.00;1.38;;;;;;;9.77;83.05;98961.38;5046227;28;20063;-47
2024/02/29 06:55:22;;;;;;;2.50;1.20;;;;;;;9.73;82.70;98957.13;5034717;28;20406;-50
2024/02/29 06:57:51;;;;;;;2.80;1.38;;;;;;;9.71;82.46;98956.34;5047618;28;20053;-48
2024/02/29 07:00:18;;;;;;;4.15;3.03;;;;;;;9.69;82.41;98955.50;5048210;28;20049;-48
2024/02/29 07:02:45;;;;;;;1.98;1.63;;;;;;;9.65;82.25;98956.41;5050285;28;20081;-48
2024/02/29 07:05:12;;;;;;;2.63;1.50;;;;;;;9.62;82.57;98956.47;5053610;28;20067;-49
2024/02/29 07:07:39;;;;;;;3.83;1.75;;;;;;;9.59;82.09;98956.53;5045234;28;20168;-47
2024/02/29 07:10:07;;;;;;;2.20;2.10;;;;;;;9.58;82.37;98949.63;5047192;28;20151;-47
2024/02/29 07:12:34;;;;;;;2.00;1.60;;;;;;;9.55;82.44;98954.88;5057404;28;20079;-49
2024/02/29 07:15:02;;;;;;;1.60;1.27;;;;;;;9.54;82.62;98953.16;5052659;28;20048;-49
2024/02/29 07:17:29;;;;;;;0.63;0.63;;;;;;;9.51;82.48;98960.09;5054167;28;20428;-50
2024/02/29 07:19:55;;;;;;;2.83;1.65;;;;;;;9.49;82.49;98956.66;5042994;28;20140;-48
2024/02/29 07:22:23;;;;;;;2.50;1.38;;;;;;;9.49;82.14;98959.25;5051451;28;20095;-51
2024/02/29 07:24:50;;;;;;;1.25;1.15;;;;;;;9.48;82.32;98962.72;5054147;28;20126;-52
2024/02/29 07:27:16;;;;;;;2.50;1.88;;;;;;;9.45;81.96;98957.59;5051461;28;20045;-50
2024/02/29 07:29:43;;;;;;;2.00;1.30;;;;;;;9.44;81.87;98963.66;5049589;28;20126;-45
2024/02/29 07:32:10;;;;;;;4.28;1.73;;;;;;;9.42;82.07;98961.97;5052917;28;20510;-44
2024/02/29 07:34:36;;;;;;;4.35;1.48;;;;;;;9.40;82.10;98959.41;5051414;28;20040;-49
2024/02/29 07:37:03;;;;;;;1.40;1.30;;;;;;;9.38;82.35;98968.91;5046845;28;20048;-49
2024/02/29 07:39:30;;;;;;;1.65;1.55;;;;;;;9.36;81.72;98960.34;5045875;28;20048;-51
2024/02/29 07:41:56;;;;;;;2.17;1.55;;;;;;;9.34;81.79;98962.06;5051398;28;20091;-47
2024/02/29 07:44:24;;;;;;;1.60;1.50;;;;;;;9.34;81.79;98967.25;5049231;28;20045;-48
2024/02/29 07:46:50;;;;;;;1.35;1.25;;;;;;;9.32;82.15;98963.84;5050311;28;20053;-47
2024/02/29 07:49:17;;;;;;;0.93;0.88;;;;;;;9.31;82.27;98957.81;5049564;28;20395;-47
2024/02/29 07:51:44;;;;;;;2.30;1.65;;;;;;;9.33;82.20;98956.06;5048321;28;20530;-50
2024/02/29 07:54:11;;;;;;;4.82;1.63;;;;;;;9.33;81.69;98950.03;5049552;28;20045;-47
2024/02/29 07:56:40;;;;;;;5.65;2.47;;;;;;;9.34;82.41;98946.56;5048988;28;20049;-46
2024/02/29 07:59:07;;;;;;;5.95;4.47;;;;;;;9.34;82.16;98939.69;5033797;28;20095;-52
2024/02/29 08:01:35;;;;;;;3.17;1.80;;;;;;;9.35;81.75;98943.09;5045120;28;20497;-50
2024/02/29 08:04:02;;;;;;;6.97;1.67;;;;;;;9.36;81.71;98937.09;5049970;28;20049;-47
2024/02/29 08:06:29;;;;;;;1.58;1.48;;;;;;;9.37;82.17;98931.03;5046870;28;20060;-50
2024/02/29 08:08:55;;;;;;;3.38;1.60;;;;;;;9.38;82.07;98933.59;5044770;28;20110;-51
2024/02/29 08:11:23;;;;;;;4.30;1.45;;;;;;;9.42;81.90;98939.53;5050809;28;20060;-50
2024/02/29 08:13:50;;;;;;;2.28;1.98;;;;;;;9.46;81.72;98933.44;5043551;28;20060;-50
2024/02/29 08:16:16;;;;;;;4.07;1.98;;;;;;;9.50;81.93;98935.09;5043564;28;20671;-48
2024/02/29 08:18:43;;;;;;;2.63;1.63;;;;;;;9.54;81.66;98937.66;5034200;28;20049;-52
2024/02/29 08:21:10;;;;;;;2.17;1.85;;;;;;;9.56;81.97;98941.06;5039719;28;20128;-50
2024/02/29 08:23:36;;;;;;;2.47;2.00;;;;;;;9.56;82.07;98944.50;5035449;28;20052;-48
2024/02/29 08:26:09;;;;;;;5.82;2.00;;;;;;;9.57;81.89;98945.34;5025666;28;20041;-47
2024/02/29 08:28:37;;;;;;;4.85;2.13;;;;;;;9.58;81.81;98949.63;5020632;28;20053;-50
2024/02/29 08:31:06;;;;;;;3.75;1.55;;;;;;;9.57;81.41;98951.38;5038855;28;20060;-45
2024/02/29 08:33:32;;;;;;;6.30;2.22;;;;;;;9.57;81.34;98947.94;5038504;28;20045;-44
2024/02/29 08:35:59;;;;;;;4.80;1.73;;;;;;;9.55;81.58;98954.88;5032914;28;20052;-49
2024/02/29 08:38:27;;;;;;;2.60;1.20;;;;;;;9.55;81.48;98949.72;5034670;28;20049;-49
2024/02/29 08:40:53;;;;;;;3.35;2.75;;;;;;;9.54;81.11;98940.22;5032432;28;20484;-51
2024/02/29 08:43:20;;;;;;;3.25;1.48;;;;;;;9.55;81.72;98941.97;5040940;28;20408;-46
2024/02/29 08:45:47;;;;;;;5.95;3.00;;;;;;;9.58;81.77;98939.31;5033892;28;20053;-50
2024/02/29 08:48:13;;;;;;;4.40;2.17;;;;;;;9.62;81.94;98940.94;5043591;28;20045;-50
2024/02/29 08:50:40;;;;;;;6.20;2.83;;;;;;;9.69;81.84;98929.63;5033028;28;20054;-47
2024/02/29 08:53:07;;;;;;;2.55;2.33;;;;;;;9.80;81.99;98931.19;5038812;28;20068;-45
2024/02/29 08:55:33;;;;;;;2.97;2.10;;;;;;;9.89;82.11;98937.06;5039858;28;20049;-48
2024/02/29 08:58:00;;;;;;;4.75;2.28;;;;;;;9.97;81.60;98936.06;5039957;28;20049;-44
2024/02/29 09:00:27;;;;;;;3.55;2.38;;;;;;;10.03;81.69;98934.22;5044335;28;20103;-46
2024/02/29 09:02:53;;;;;;;2.33;1.70;;;;;;;10.09;81.20;98937.56;5044625;28;20052;-49
2024/02/29 09:05:21;;;;;;;3.72;1.67;;;;;;;10.12;81.00;98935.78;5041876;28;20049;-47
2024/02/29 09:07:48;;;;;;;3.67;1.65;;;;;;;10.15;81.82;98924.50;5036138;28;20041;-48
2024/02/29 09:10:15;;;;;;;3.22;2.13;;;;;;;10.18;81.36;98919.28;5038304;28;20064;-48
2024/02/29 09:12:42;;;;;;;2.45;2.17;;;;;;;10.21;81.33;98924.41;5039550;28;20072;-47
2024/02/29 09:15:09;;;;;;;5.88;2.30;;;;;;;10.24;81.52;98928.66;5039313;28;20106;-47
2024/02/29 09:17:36;;;;;;;4.40;1.20;;;;;;;10.27;81.44;98924.28;5042671;28;20433;-49
2024/02/29 09:20:04;;;;;;;4.40;2.15;;;;;;;10.33;82.14;98922.47;5042585;28;20492;-46
2024/02/29 09:22:31;;;;;;;3.63;2.35;;;;;;;10.36;81.29;98918.06;5041064;28;20709;-47
2024/02/29 09:24:58;;;;;;;5.03;1.92;;;;;;;10.36;81.22;98918.06;5039541;28;20076;-48
2024/02/29 09:27:26;;;;;;;5.20;2.03;;;;;;;10.34;81.15;98925.00;5038851;28;20050;-52
2024/02/29 09:29:52;;;;;;;3.13;2.85;;;;;;;10.31;81.12;98925.06;5040585;28;20063;-44
2024/02/29 09:32:22;;;;;;;3.42;1.80;;;;;;;10.32;81.27;98920.72;5039772;28;20154;-48
2024/02/29 09:34:48;;;;;;;4.85;0.98;;;;;;;10.33;81.21;98917.28;5044474;28;20398;-51
2024/02/29 09:37:18;;;;;;;8.13;2.08;;;;;;;10.35;80.78;98925.84;5036529;28;20059;-46
2024/02/29 09:39:45;;;;;;;4.00;1.75;;;;;;;10.31;80.76;98929.38;5036747;28;20461;-50
2024/02/29 09:42:12;;;;;;;4.53;1.90;;;;;;;10.28;80.56;98926.00;5035612;28;20049;-49
2024/02/29 09:44:42;;;;;;;5.85;2.00;;;;;;;10.27;81.03;98926.84;5035774;28;20052;-47
2024/02/29 09:47:12;;;;;;;6.10;2.00;;;;;;;10.24;80.44;98929.50;5033519;28;20159;-48
2024/02/29 09:49:40;;;;;;;3.42;1.40;;;;;;;10.22;80.20;98927.81;5039924;28;20076;-47
2024/02/29 09:52:12;;;;;;;2.55;1.42;;;;;;;10.21;80.77;98924.41;5023672;28;20049;-45
2024/02/29 09:54:40;;;;;;;7.00;1.73;;;;;;;10.22;81.10;98926.09;5035986;28;20053;-47
2024/02/29 09:57:09;;;;;;;6.80;2.22;;;;;;;10.29;80.69;98916.47;5021508;28;20052;-49
2024/02/29 09:59:43;;;;;;;3.22;1.50;;;;;;;10.38;80.56;98911.13;5011237;28;20053;-48
2024/02/29 10:02:15;;;;;;;8.85;1.80;;;;;;;10.57;80.60;98915.09;5038424;28;20041;-53
2024/02/29 10:04:42;;;;;;;4.95;2.38;;;;;;;10.75;80.47;98908.69;5015667;28;20049;-50
2024/02/29 10:07:09;;;;;;;7.00;1.30;;;;;;;10.90;80.63;98897.09;5045457;28;20401;-51
2024/02/29 10:09:36;;;;;;;7.68;2.80;;;;;;;11.11;80.03;98889.75;5047312;28;20147;-49
2024/02/29 10:12:04;;;;;;;8.45;2.33;;;;;;;11.31;79.31;98907.41;5043180;28;20473;-47
2024/02/29 10:14:31;;;;;;;5.40;2.35;;;;;;;11.47;79.31;98896.66;5048366;28;20052;-46
2024/02/29 10:16:57;;;;;;;7.57;2.00;;;;;;;11.69;79.21;98902.16;5045093;28;20128;-52
2024/02/29 10:19:24;;;;;;;3.60;2.25;;;;;;;11.78;79.83;98901.91;5040066;28;20053;-44
2024/02/29 10:21:52;;;;;;;6.20;2.15;;;;;;;11.78;78.39;98901.91;5047941;28;20071;-48
2024/02/29 10:24:20;;;;;;;11.75;4.40;;;;;;;11.74;78.08;98894.25;5041082;28;20554;-50
2024/02/29 10:26:46;;;;;;;5.22;2.13;;;;;;;11.68;78.30;98905.63;5038156;28;20124;-46
2024/02/29 10:29:16;;;;;;;9.15;0.88;;;;;;;11.62;78.70;98898.84;5037005;28;20588;-45
2024/02/29 10:31:43;;;;;;;6.78;1.98;;;;;;;11.53;77.52;98905.16;5039493;28;20064;-47
2024/02/29 10:34:11;;;;;;;9.73;2.33;;;;;;;11.43;78.41;98908.84;5042125;28;20045;-44
2024/02/29 10:36:39;;;;;;;5.63;2.28;;;;;;;11.38;78.32;98902.94;5005960;28;20049;-44
2024/02/29 10:39:06;;;;;;;7.15;2.13;;;;;;;11.32;78.77;98904.75;5021852;28;20057;-46
2024/02/29 10:41:36;;;;;;;14.65;2.72;;;;;;;11.28;78.36;98899.72;5041274;28;20558;-48
2024/02/29 10:44:05;;;;;;;7.97;3.10;;;;;;;11.22;77.81;98908.50;5041788;28;20048;-49
2024/02/29 10:46:34;;;;;;;7.22;2.25;;;;;;;11.16;77.13;98903.44;5023840;28;20080;-48
2024/02/29 10:49:04;;;;;;;8.35;1.83;;;;;;;11.11;77.08;98902.72;5034487;28;20509;-47
2024/02/29 10:54:19;;;;;;;11.88;0.90;;;;;;;10.98;78.14;98902.97;5053433;28;20393;-50
2024/02/29 10:56:48;;;;;;;6.95;1.15;;;;;;;10.96;78.15;98896.97;5009609;28;20140;-46
2024/02/29 10:59:17;;;;;;;5.53;0.90;;;;;;;10.96;77.45;98901.31;5027925;28;20064;-47
2024/02/29 11:01:45;;;;;;;3.72;0.85;;;;;;;10.95;78.67;98900.47;5020304;28;20064;-46
2024/02/29 11:04:14;;;;;;;4.72;1.02;;;;;;;10.93;77.99;98902.22;5018588;28;20712;-52
2024/02/29 11:06:46;;;;;;;5.10;1.10;;;;;;;10.89;77.46;98896.28;5031951;28;20079;-46
2024/02/29 11:09:16;;;;;;;10.95;0.93;;;;;;;10.89;78.13;98883.31;5025004;28;20061;-45
2024/02/29 11:11:45;;;;;;;9.65;1.83;;;;;;;10.90;77.94;98886.75;5027696;28;20067;-50
2024/02/29 11:14:13;;;;;;;9.85;1.50;;;;;;;10.89;77.96;98885.06;5028243;28;20395;-47
2024/02/29 11:16:42;;;;;;;7.13;1.10;;;;;;;10.85;77.68;98879.09;5018117;28;20518;-47
2024/02/29 11:19:13;;;;;;;6.68;2.60;;;;;;;10.83;77.57;98880.00;5017811;28;20055;-46
2024/02/29 11:21:40;;;;;;;6.18;2.88;;;;;;;10.80;77.70;98883.50;5017162;28;20528;-48
2024/02/29 11:24:14;;;;;;;11.50;1.33;;;;;;;10.80;77.57;98886.97;5032148;28;20748;-47
2024/02/29 11:26:43;;;;;;;8.25;1.50;;;;;;;10.80;77.54;98880.94;5028678;28;20107;-48
2024/02/29 11:31:49;;;;;;;6.40;1.20;;;;;;;10.69;77.36;98886.34;5084191;27;20401;-46
2024/02/29 11:34:17;;;;;;;9.48;1.90;;;;;;;10.63;76.81;98884.75;5077688;28;20051;-47
2024/02/29 11:36:45;;;;;;;5.78;1.02;;;;;;;10.60;76.31;98891.75;5060528;28;20060;-46
2024/02/29 11:39:14;;;;;;;6.28;1.10;;;;;;;10.54;77.22;98890.97;5079534;28;20409;-52
2024/02/29 11:41:41;;;;;;;9.15;1.45;;;;;;;10.50;77.19;98886.75;5055671;28;20795;-45